Flight Track Log - Related Links

Times and Time Zones

All times are in EDT time to prevent confusion due to time zone crossing. See the UAL3744 flight status page for this flight to view local times or setup timezone preferences in your user account.

Time Position Orientation Groundspeed Altitude Reporting Facility
EDT Latitude Longitude Course Direction KTS MPH feet Rate Location/Type
Thu 08:49:44 AM 38.9000 -77.4500 288° West 181 208 1,600  Level Potomac TRACON
Thu 08:50:44 AM 38.8667 -77.5167 237° Southwest 231 266 3,700 2,277 Climbing Potomac TRACON
Thu 08:52:59 AM 38.7872 -77.6664 236° Southwest 241 277 9,000 2,215 Climbing Washington Center
Thu 08:53:59 AM 38.8019 -77.7681 281° West 258 297 10,900 1,700 Climbing Washington Center
Thu 08:54:59 AM 38.8144 -77.8803 278° West 292 336 12,400 1,550 Climbing Washington Center
Thu 08:55:00 AM 38.8430 -78.1719 288° West  Level FlightAware Approximate
Thu 08:55:59 AM 38.8289 -78.0006 279° West 325 374 14,000  Level Washington Center
Thu 08:56:59 AM 38.8450 -78.1239 280° West 344 396 15,600 1,750 Climbing Washington Center
Thu 08:57:59 AM 38.8528 -78.2547 274° West 363 418 17,500 1,650 Climbing Washington Center
Thu 08:58:59 AM 38.8517 -78.3878 269° West 368 423 18,900 1,250 Climbing Washington Center
Thu 08:59:59 AM 38.8544 -78.5347 271° West 368 423 20,000 1,400 Climbing Washington Center
Thu 09:00:59 AM 38.8494 -78.6569 267° West 373 429 21,700 1,450 Climbing Washington Center
Thu 09:01:59 AM 38.8478 -78.7956 269° West 385 443 22,900 1,150 Climbing Washington Center
Thu 09:02:59 AM 38.8436 -78.9528 268° West 396 456 24,000 1,000 Climbing Washington Center
Thu 09:03:59 AM 38.8439 -79.0833 270° West 403 464 24,900 950 Climbing Washington Center
Thu 09:04:59 AM 38.8356 -79.2294 266° West 403 464 25,900 950 Climbing Washington Center
Thu 09:05:59 AM 38.8100 -79.3747 257° West 403 464 26,800 850 Climbing Washington Center
Thu 09:06:59 AM 38.7847 -79.5200 257° West 413 475 27,600 750 Climbing Washington Center
Thu 09:07:59 AM 38.7586 -79.6731 258° West 425 489 28,300 1,200 Climbing Washington Center
Thu 09:08:59 AM 38.7281 -79.8336 256° West 432 497 30,000 1,150 Climbing Washington Center
Thu 09:09:59 AM 38.7022 -79.9758 257° West 426 490 30,600 590 Climbing Washington Center
Thu 09:11:52 AM 38.6539 -80.2131 255° West 420 483 31,700 690 Climbing Indianapolis Center
Thu 09:12:53 AM 38.6214 -80.3881 257° West 421 484 32,600 829 Climbing Indianapolis Center
Thu 09:13:55 AM 38.5950 -80.5333 257° West 418 481 33,400 780 Climbing Indianapolis Center
Thu 09:14:56 AM 38.5664 -80.6756 256° West 415 478 34,200 780 Climbing Indianapolis Center
Thu 09:15:58 AM 38.5392 -80.8183 256° West 412 474 35,000 390 Climbing Indianapolis Center
Thu 09:16:59 AM 38.5103 -80.9617 256° West 415 478 35,000  Level Indianapolis Center
Thu 09:18:01 AM 38.4814 -81.1083 256° West 422 486 35,000 293 Level Indianapolis Center
Thu 09:19:02 AM 38.4531 -81.2550 256° West 422 486 35,600 488 Climbing Indianapolis Center
Thu 09:20:04 AM 38.4236 -81.3992 255° West 416 479 36,000 195 Climbing Indianapolis Center
Thu 09:21:05 AM 38.3939 -81.5472 256° West 424 488 36,000  Level Indianapolis Center
Thu 09:22:07 AM 38.3589 -81.6922 253° West 425 489 36,000  Level Indianapolis Center
Thu 09:23:08 AM 38.3186 -81.8367 250° West 430 495 36,000  Level Indianapolis Center
Thu 09:24:10 AM 38.2797 -81.9797 251° West 428 493 36,000  Level Indianapolis Center
Thu 09:25:12 AM 38.2311 -82.1544 251° West 433 498 36,000  Level Indianapolis Center
Thu 09:26:13 AM 38.1903 -82.3000 250° West 435 501 36,000  Level Indianapolis Center
Thu 09:27:15 AM 38.1492 -82.4453 250° West 435 501 36,000  Level Indianapolis Center
Thu 09:28:16 AM 38.1106 -82.5853 251° West 437 503 36,000  Level Indianapolis Center
Thu 09:29:18 AM 38.0681 -82.7281 249° West 435 501 36,000  Level Indianapolis Center
Thu 09:30:20 AM 38.0192 -82.8983 250° West 438 504 36,000  Level Indianapolis Center
Thu 09:31:21 AM 37.9764 -83.0464 250° West 444 511 36,000  Level Indianapolis Center
Thu 09:32:23 AM 37.9339 -83.1953 250° West 448 516 36,000  Level Indianapolis Center
Thu 09:33:24 AM 37.8911 -83.3439 250° West 450 518 36,000  Level Indianapolis Center
Thu 09:34:26 AM 37.8464 -83.4936 249° West 452 520 36,000  Level Indianapolis Center
Thu 09:35:28 AM 37.8025 -83.6431 250° West 454 522 36,000  Level Indianapolis Center
Thu 09:36:30 AM 37.7500 -83.8181 249° West 456 525 36,000  Level Indianapolis Center
Thu 09:37:31 AM 37.7050 -83.9678 249° West 455 524 36,000  Level Indianapolis Center
Thu 09:38:33 AM 37.6606 -84.1158 249° West 452 520 36,000  Level Indianapolis Center
Thu 09:39:34 AM 37.6167 -84.2631 249° West 450 518 36,000  Level Indianapolis Center
Thu 09:40:36 AM 37.5722 -84.4078 249° West 444 511 36,000  Level Indianapolis Center
Thu 09:41:38 AM 37.5275 -84.5525 249° West 442 509 36,000  Level Indianapolis Center
Thu 09:42:39 AM 37.4842 -84.6969 249° West 440 506 36,000  Level Indianapolis Center
Thu 09:43:41 AM 37.4317 -84.8636 248° West 438 504 36,000  Level Indianapolis Center
Thu 09:44:43 AM 37.3883 -85.0069 249° West 437 503 36,000  Level Indianapolis Center
Thu 09:45:44 AM 37.3433 -85.1478 248° West 435 501 36,000  Level Indianapolis Center
Thu 09:46:46 AM 37.2978 -85.2903 248° West 438 504 36,000  Level Indianapolis Center
Thu 09:47:48 AM 37.2550 -85.4297 249° West 432 497 36,000  Level Indianapolis Center
Thu 09:48:49 AM 37.2058 -85.5875 249° West 433 498 36,000  Level Indianapolis Center
Thu 09:49:17 AM 37.1900 -85.6389 249° West 433 498 36,000  Level Memphis Center
Thu 09:50:17 AM 37.1453 -85.7742 248° West 433 498 36,000  Level Memphis Center
Thu 09:51:17 AM 37.1044 -85.9119 250° West 433 498 36,000  Level Memphis Center
Thu 09:52:17 AM 37.0569 -86.0497 247° West 433 498 36,000  Level Memphis Center
Thu 09:53:17 AM 37.0053 -86.1797 244° Southwest 428 493 36,000  Level Memphis Center
Thu 09:54:17 AM 36.9447 -86.3050 239° Southwest 428 493 36,000  Level Memphis Center
Thu 09:55:17 AM 36.8783 -86.4431 239° Southwest 434 499 36,000  Level Memphis Center
Thu 09:56:17 AM 36.8136 -86.5708 238° Southwest 434 499 36,000  Level Memphis Center
Thu 09:57:17 AM 36.7508 -86.6981 238° Southwest 434 499 36,000  Level Memphis Center
Thu 09:58:17 AM 36.6856 -86.8253 237° Southwest 434 499 36,000  Level Memphis Center
Thu 09:59:17 AM 36.6225 -86.9547 239° Southwest 434 499 36,000  Level Memphis Center
Thu 10:00:17 AM 36.5572 -87.0814 237° Southwest 434 499 36,000  Level Memphis Center
Thu 10:01:17 AM 36.4917 -87.2106 238° Southwest 439 505 36,000  Level Memphis Center
Thu 10:02:17 AM 36.4261 -87.3369 237° Southwest 439 505 36,000  Level Memphis Center
Thu 10:03:17 AM 36.3625 -87.4603 237° Southwest 444 511 36,000  Level Memphis Center
Thu 10:04:17 AM 36.2986 -87.5861 238° Southwest 444 511 36,000  Level Memphis Center
Thu 10:05:17 AM 36.2325 -87.7119 237° Southwest 444 511 36,000  Level Memphis Center
Thu 10:06:17 AM 36.1703 -87.8347 238° Southwest 444 511 36,000  Level Memphis Center
Thu 10:07:17 AM 36.1336 -87.9722 252° West 425 489 36,000  Level Memphis Center
Thu 10:08:17 AM 36.1217 -88.1164 264° West 422 486 36,000 350 Level Memphis Center
Thu 10:09:17 AM 36.1092 -88.2375 263° West 417 480 36,700 750 Climbing Memphis Center
Thu 10:10:17 AM 36.0947 -88.3739 263° West 417 480 37,500 650 Climbing Memphis Center
Thu 10:11:17 AM 36.0822 -88.5078 263° West 405 466 38,000 250 Climbing Memphis Center
Thu 10:12:17 AM 36.0694 -88.6392 263° West 395 455 38,000  Level Memphis Center
Thu 10:13:17 AM 36.0547 -88.7728 262° West 390 449 38,000  Level Memphis Center
Thu 10:14:17 AM 36.0417 -88.9042 263° West 390 449 38,000  Level Memphis Center
Thu 10:15:17 AM 36.0264 -89.0353 262° West 390 449 38,000  Level Memphis Center
Thu 10:16:17 AM 36.0131 -89.1689 263° West 390 449 38,000  Level Memphis Center
Thu 10:17:17 AM 35.9997 -89.3025 263° West 390 449 38,000  Level Memphis Center
Thu 10:18:17 AM 35.9842 -89.4489 263° West 390 449 38,000  Level Memphis Center
Thu 10:19:17 AM 35.9706 -89.5825 263° West 390 449 38,000  Level Memphis Center
Thu 10:20:17 AM 35.9567 -89.7158 263° West 390 449 38,000  Level Memphis Center
Thu 10:21:17 AM 35.9450 -89.8519 264° West 390 449 38,000  Level Memphis Center
Thu 10:22:17 AM 35.9286 -89.9906 262° West 395 455 38,000  Level Memphis Center
Thu 10:23:17 AM 35.9144 -90.1236 263° West 401 461 38,000  Level Memphis Center
Thu 10:24:17 AM 35.8981 -90.2622 262° West 406 467 38,000  Level Memphis Center
Thu 10:25:17 AM 35.8833 -90.4031 263° West 411 473 38,000  Level Memphis Center
Thu 10:26:17 AM 35.8667 -90.5389 261° West 411 473 38,000 50 Level Memphis Center
Thu 10:27:17 AM 35.8497 -90.6772 261° West 411 473 38,100  Climbing Memphis Center
Thu 10:28:17 AM 35.8347 -90.8103 262° West 406 467 38,000  Descending Memphis Center
Thu 10:29:17 AM 35.8194 -90.9433 262° West 406 467 38,100  Climbing Memphis Center
Thu 10:30:17 AM 35.8042 -91.0764 262° West 406 467 38,000 -50 Descending Memphis Center
Thu 10:31:17 AM 35.7931 -91.2067 264° West 396 456 38,000  Level Memphis Center
Thu 10:32:17 AM 35.7733 -91.3319 259° West 391 450 38,000  Level Memphis Center
Thu 10:33:17 AM 35.7661 -91.4469 266° West 380 437 38,000  Level Memphis Center
Thu 10:34:17 AM 35.7525 -91.5694 262° West 375 432 38,000  Level Memphis Center
Thu 10:35:17 AM 35.7386 -91.6919 262° West 370 426 38,000  Level Memphis Center
Thu 10:36:17 AM 35.7206 -91.8119 260° West 370 426 38,000  Level Memphis Center
Thu 10:37:17 AM 35.7044 -91.9344 261° West 370 426 38,000  Level Memphis Center
Thu 10:38:17 AM 35.6906 -92.0542 262° West 365 420 38,000  Level Memphis Center
Thu 10:39:17 AM 35.6742 -92.1742 260° West 365 420 38,000  Level Memphis Center
Thu 10:40:17 AM 35.6578 -92.2964 261° West 365 420 38,000  Level Memphis Center
Thu 10:41:17 AM 35.6433 -92.4186 262° West 370 426 38,000  Level Memphis Center
Thu 10:42:17 AM 35.6267 -92.5383 260° West 365 420 38,000 -50 Level Memphis Center
Thu 10:43:17 AM 35.6119 -92.6578 261° West 365 420 37,900  Descending Memphis Center
Thu 10:44:17 AM 35.5969 -92.7928 262° West 373 429 38,000 50 Climbing Memphis Center
Thu 10:45:17 AM 35.5800 -92.9122 260° West 366 421 38,000  Level Memphis Center
Thu 10:46:17 AM 35.5650 -93.0317 261° West 366 421 38,000  Level Memphis Center
Thu 10:47:17 AM 35.5497 -93.1511 261° West 366 421 38,000  Level Memphis Center
Thu 10:48:17 AM 35.5325 -93.2653 260° West 361 415 38,000  Level Memphis Center
Thu 10:49:17 AM 35.5153 -93.3822 260° West 354 407 38,000  Level Memphis Center
Thu 10:50:17 AM 35.4975 -93.5014 260° West 349 402 38,000  Level Memphis Center
Thu 10:51:17 AM 35.4800 -93.6156 259° West 354 407 38,000  Level Memphis Center
Thu 10:52:17 AM 35.4356 -93.7233 243° Southwest 349 402 38,000 -50 Level Memphis Center
Thu 10:53:17 AM 35.3889 -93.8308 242° Southwest 355 409 37,900 -550 Descending Memphis Center
Thu 10:54:17 AM 35.3419 -93.9358 241° Southwest 355 409 36,900 -950 Descending Memphis Center
Thu 10:55:17 AM 35.2972 -94.0408 242° Southwest 355 409 36,000 -450 Descending Memphis Center
Thu 10:56:17 AM 35.2503 -94.1431 241° Southwest 355 409 36,000  Level Memphis Center
Thu 10:57:17 AM 35.2053 -94.2478 242° Southwest 350 403 36,000  Level Memphis Center
Thu 10:59:27 AM 35.1050 -94.4775 242° Southwest 350 403 36,000  Level Fort Worth Center
Thu 11:00:27 AM 35.0594 -94.5831 242° Southwest 355 409 36,000  Level Fort Worth Center
Thu 11:01:27 AM 35.0075 -94.6861 238° Southwest 360 414 36,000  Level Fort Worth Center
Thu 11:02:27 AM 34.9342 -94.7694 223° Southwest 360 414 36,000  Level Fort Worth Center
Thu 11:03:27 AM 34.8689 -94.8397 221° Southwest 355 409 36,000  Level Fort Worth Center
Thu 11:04:27 AM 34.7975 -94.9153 221° Southwest 355 409 36,000  Level Fort Worth Center
Thu 11:05:27 AM 34.7258 -94.9931 222° Southwest 355 409 36,000  Level Fort Worth Center
Thu 11:06:27 AM 34.6583 -95.0633 221° Southwest 345 397 36,000 -1,000 Level Fort Worth Center
Thu 11:07:27 AM 34.5847 -95.1408 221° Southwest 345 397 34,000 -2,100 Descending Fort Worth Center
Thu 11:08:27 AM 34.5150 -95.2158 222° Southwest 345 397 31,800 -2,100 Descending Fort Worth Center
Thu 11:09:27 AM 34.4497 -95.2881 222° Southwest 339 390 29,800 -2,000 Descending Fort Worth Center
Thu 11:10:27 AM 34.3797 -95.3578 219° Southwest 334 384 27,800 -1,900 Descending Fort Worth Center
Thu 11:11:27 AM 34.3164 -95.4272 222° Southwest 328 377 26,000 -1,650 Descending Fort Worth Center
Thu 11:12:27 AM 34.2506 -95.4964 221° Southwest 321 369 24,500 -1,000 Descending Fort Worth Center
Thu 11:13:27 AM 34.1931 -95.5556 220° Southwest 302 348 24,000 -250 Descending Fort Worth Center
Thu 11:14:27 AM 34.1231 -95.6247 219° Southwest 302 348 24,000 -300 Level Fort Worth Center
Thu 11:15:27 AM 34.0697 -95.6808 221° Southwest 302 348 23,400 -850 Descending Fort Worth Center
Thu 11:16:27 AM 34.0039 -95.7525 222° Southwest 309 356 22,300 -1,100 Descending Fort Worth Center
Thu 11:17:27 AM 33.9317 -95.8239 219° Southwest 322 371 21,200 -1,150 Descending Fort Worth Center
Thu 11:18:27 AM 33.8617 -95.8953 220° Southwest 327 376 20,000 -1,300 Descending Fort Worth Center
Thu 11:19:27 AM 33.7956 -95.9664 222° Southwest 320 368 18,600 -1,300 Descending Fort Worth Center
Thu 11:20:27 AM 33.7339 -96.0297 221° Southwest 302 348 17,400 -1,200 Descending Fort Worth Center
Thu 11:21:27 AM 33.6719 -96.0931 220° Southwest 302 348 16,200 -1,150 Descending Fort Worth Center
Thu 11:22:27 AM 33.6139 -96.1539 221° Southwest 295 339 15,100 -1,000 Descending Fort Worth Center
Thu 11:23:27 AM 33.5561 -96.2144 221° Southwest 285 328 14,200 -1,000 Descending Fort Worth Center
Thu 11:24:27 AM 33.5003 -96.2775 223° Southwest 285 328 13,100 -1,000 Descending Fort Worth Center
Thu 11:25:27 AM 33.4467 -96.3431 226° Southwest 285 328 12,200 -900 Descending Fort Worth Center
Thu 11:26:27 AM 33.3992 -96.4008 225° Southwest 277 319 11,300 -600 Descending Fort Worth Center
Thu 11:27:27 AM 33.3392 -96.4711 224° Southwest 272 313 11,000 -150 Descending Fort Worth Center
Thu 11:28:27 AM 33.2917 -96.5286 225° Southwest 277 319 11,000  Level Fort Worth Center
Thu 11:29:27 AM 33.2378 -96.5939 225° Southwest 277 319 11,000  Level Fort Worth Center
Thu 11:30:27 AM 33.1861 -96.6564 225° Southwest 264 304 11,000  Level Fort Worth Center
Thu 11:31:27 AM 33.1425 -96.7089 225° Southwest 247 284 11,000 50 Level Fort Worth Center
Thu 11:32:27 AM 33.0886 -96.7689 223° Southwest 247 284 11,100  Climbing Fort Worth Center
Thu 11:33:27 AM 33.0492 -96.8186 227° Southwest 247 284 11,000 -76 Descending Fort Worth Center
Thu 11:33:46 AM 33.0333 -96.8333 218° Southwest 236 272 11,000  Level Dallas / Fort Worth TRACON
Thu 11:34:40 AM 32.9833 -96.8833 220° Southwest 203 234 11,000 -105 Level Dallas / Fort Worth TRACON
Thu 11:35:40 AM 32.9333 -96.9000 196° South 220 253 10,800 -762 Descending Dallas / Fort Worth TRACON
Thu 11:36:46 AM 32.8667 -96.9000 180° South 224 258 9,400 -1,400 Descending Dallas / Fort Worth TRACON
Thu 11:37:40 AM 32.8167 -96.9000 180° South 227 261 8,000 -1,513 Descending Dallas / Fort Worth TRACON
Thu 11:38:41 AM 32.7500 -96.9000 180° South 256 295 6,500 -992 Descending Dallas / Fort Worth TRACON
Thu 11:39:41 AM 32.6667 -96.9167 190° South 263 303 6,000 -250 Descending Dallas / Fort Worth TRACON
Thu 11:40:41 AM 32.6000 -96.9167 180° South 259 298 6,000 -350 Level Dallas / Fort Worth TRACON
Thu 11:41:41 AM 32.5833 -96.9833 253° West 218 251 5,300 -500 Descending Dallas / Fort Worth TRACON
Thu 11:42:41 AM 32.6333 -97.0333 320° Northwest 210 242 5,000 -347 Descending Dallas / Fort Worth TRACON
Thu 11:43:42 AM 32.6833 -97.0333 360° North 200 230 4,600 -744 Descending Dallas / Fort Worth TRACON
Thu 11:44:42 AM 32.7333 -97.0333 360° North 175 201 3,500 -1,050 Descending Dallas / Fort Worth TRACON
Thu 11:45:42 AM 32.7833 -97.0333 360° North 174 200 2,500 -1,000 Descending Dallas / Fort Worth TRACON

Login

Don't have an account? Register now (free) for customized features, flight alerts, and more!